Tiempo atmosférico en la estación meteorológica de Hierro Aeropuerto, Santa Cruz de Tenerife (32 m.)



Fecha
DESCASC
Temp. máxima en grados centígrados (hora)
DESCASC
Temp. mínima en grados centígrados (hora)
DESCASC
Temp. media en grados centígrados
DESCASC
Racha de viento máxima en m/sg (hora)
DESCASC
Velocidad máxima media en intervalos de 10 minutos(hora)
DESCASC
Precipitaciones diarias en mm
DESCASC
Precipitaciones de 00:00 a 06:00 en mm
DESCASC
Precipitaciones de 06:00 a 12:00 en mm
DESCASC
Precipitaciones de 12:00 a 18:00 en mm
DESCASC
Precipitaciones de 18:00 a 24:00 en mm
DESCASC
22-04-2019 22.7 (15:10) 18.3 (04:10) 20.5 18.61 (20:20) 13.06 (21:50) 0 0 0 0 0
21-04-2019 -- (--) -- (--) -- -- (--) -- (--) -- -- -- 0 0
20-04-2019 20.9 (15:00) 18 (07:00) 19.4 13.89 (01:30) 11.11 (22:00) 0 0 0 0 0
19-04-2019 20.7 (14:20) 18 (05:30) 19.4 15.28 (06:40) 13.06 (07:50) 0 0 0 0 0
18-04-2019 21.2 (14:30) 17.8 (00:00) 19.5 13.89 (05:50) 11.39 (05:50) 0 0 0 0 0
17-04-2019 20.8 (13:00) 18.1 (00:00) 19.4 11.39 (03:30) 8.33 (22:40) 0 0 0 0 0
16-04-2019 21.9 (18:40) 18.3 (00:00) 20.1 13.89 (22:20) 8.06 (19:50) 0 0 0 0 0
15-04-2019 22.9 (13:50) 18.5 (00:00) 20.7 14.44 (00:10) 10.28 (00:10) 0 0 0 0 0
14-04-2019 21.6 (12:40) 16.1 (00:00) 18.9 13.33 (18:40) 9.44 (23:30) 0 0 0 0 0
13-04-2019 21.5 (14:50) 17.9 (00:00) 19.7 12.78 (04:20) 9.72 (04:20) 0 0 0 0 0
12-04-2019 20.7 (12:40) 17.6 (00:00) 19.2 13.89 (05:20) 10.56 (07:30) 0 0 0 0 0
11-04-2019 20.4 (14:20) 17.9 (00:00) 19.1 13.89 (08:40) 11.11 (23:40) 0 0 0 0 0
10-04-2019 21 (12:20) 17.9 (00:00) 19.4 15 (09:20) 11.39 (09:30) 0 0 0 0 0
09-04-2019 22.1 (15:50) 17.8 (00:00) 19.9 11.39 (21:40) 9.44 (22:00) 0 0 0 0 0
08-04-2019 20.7 (15:50) 16.5 (00:00) 18.6 8.89 (20:20) 6.94 (21:10) 0.4 0.4 0 0 0
07-04-2019 21.4 (15:40) 16.9 (00:00) 19.1 10.83 (01:00) 8.61 (01:00) 0 0 0 0 0
06-04-2019 20.4 (14:20) 17.4 (00:00) 18.9 16.11 (04:00) 13.06 (04:00) 0 0 0 0 0
05-04-2019 21.4 (15:20) 16.9 (00:00) 19.1 13.89 (19:20) 10.28 (18:30) 0.1 0.1 0 0 0
04-04-2019 20.6 (14:40) 15.7 (00:00) 18.2 13.33 (10:20) 11.11 (11:30) 1.2 0.3 0 0 0.9
03-04-2019 20.1 (13:50) 15.7 (02:00) 17.9 13.33 (10:20) 8.33 (22:00) 1.6 1.2 0.4 0 0
02-04-2019 17.8 (22:30) 13.4 (00:00) 15.6 12.78 (00:10) 10.28 (00:20) 19.4 17.2 2.2 0 0
01-04-2019 21.5 (16:20) 15.3 (00:00) 18.4 14.44 (23:30) 11.67 (23:10) 11.6 0 0 0 11.6
31-03-2019 20.8 (15:20) 17.4 (00:00) 19.1 10.83 (00:40) 8.06 (17:10) 0.4 0.3 0.1 0 0
30-03-2019 20.9 (15:20) 15.6 (00:00) 18.3 12.5 (23:40) 7.5 (06:20) 0 0 0 0 0
29-03-2019 20.1 (10:30) 15.1 (00:00) 17.6 10.28 (16:50) 6.11 (17:00) 1.3 0 0 0.8 0.5
28-03-2019 20.7 (11:40) 16 (00:00) 18.4 7.78 (16:30) 5.83 (10:20) 6 0.4 5.6 0 0
27-03-2019 21.3 (13:30) 18 (00:00) 19.6 11.39 (03:00) 8.89 (02:20) 0.5 0 0 0 0.5
26-03-2019 23.4 (13:50) 15 (00:00) 19.2 13.33 (16:50) 10.28 (21:50) 1.2 1.2 0 0 0
25-03-2019 19.1 (13:50) 14.3 (00:00) 16.7 9.72 (04:30) 6.39 (04:20) 7.9 7.4 0.3 0 0.2

Gráficas

Temp. máximas Temp. mínimas Temp. medias Precipitaciones Rachas de viento máximas Velocidades máximas media en intervalos de 10 minutos

Datos horarios

Fecha y hora oficial Temperatura (ºC) Velocidad del viento (km/h) Dirección del viento Racha (km/h) Dirección de racha Precipitación (mm) Presión (hPa) Tendencia (hPa) Humedad (%)
2019-04-23 23:00:00 18.2 32 Noroeste 46 Noroeste 0 1013.6 1.6 67
2019-04-23 22:00:00 18.4 30 Noroeste 41 Noroeste 0 1013 1.4 67
2019-04-23 21:00:00 18.4 28 Noroeste 42 Noroeste 0 1012.8 1.2 64
2019-04-23 20:00:00 18.7 33 Noroeste 48 Noroeste 0 1012 0.1 62
2019-04-23 19:00:00 19.4 36 Noroeste 50 Norte 0 1011.6 -0.6 64
2019-04-23 18:00:00 19.8 30 Noroeste 48 Noroeste 0 1011.6 -0.9 65
2019-04-23 17:00:00 19.2 35 Noroeste 45 Noroeste 0 1011.9 -0.6 71
2019-04-23 16:00:00 19.5 35 Noroeste 50 Noroeste 0 1012.2 -0.4 71
2019-04-23 15:00:00 19 33 Noroeste 50 Norte 0.1 1012.5 0.2 80
2019-04-23 14:00:00 20.9 33 Noroeste 48 Noroeste 0 1012.5 0.6 70
2019-04-23 13:00:00 20.1 29 Noroeste 50 Noroeste 0 1012.6 1 72
2019-04-23 12:00:00 20.8 27 Noroeste 55 Noroeste 0 1012.3 1.4 60
2019-04-23 11:00:00 20.7 28 Noroeste 58 Oeste 0 1011.9 1.2 60
2019-04-23 10:00:00 19.5 30 Noroeste 58 Noroeste 0 1011.6 1.5 64
2019-04-23 09:00:00 19 31 Noroeste 50 Noroeste 0 1010.9 1.2 66
2019-04-23 08:00:00 18.6 39 Noroeste 61 Noroeste 0 1010.7 0.6 66
2019-04-23 07:00:00 18.6 42 Noroeste 61 Noroeste 0 1010.1 -0.6 67
2019-04-23 06:00:00 18.7 41 Noroeste 61 Noroeste 0 1009.7 -1.8 67
2019-04-23 05:00:00 18.8 36 Noroeste 55 Noroeste 0 1010.1 -1.7 72
2019-04-23 04:00:00 18.8 29 Noroeste 48 Noroeste 0 1010.7 -1 71
2019-04-23 03:00:00 18.5 32 Noroeste 59 Noroeste 0 1011.5 -0.3 69
2019-04-23 02:00:00 18.4 42 Noroeste 65 Noroeste 0 1011.8 0 70
2019-04-23 01:00:00 18.5 38 Noroeste 59 Noroeste 0 1011.7 0.9 70
2019-04-23 00:00:00 18.7 45 Noroeste 65 Noroeste 0 1011.8 1.2 72
2019-04-22 23:00:00 18.6 41 Noroeste 63 Noroeste 0 1011.8 1.3 70
2019-04-22 22:00:00 18.7 43 Noroeste 67 Norte 0 1010.8 -0.4 68
2019-04-22 21:00:00 18.9 40 Noroeste 67 Noroeste 0 1010.6 -0.6 69
2019-04-22 20:00:00 19 44 Noroeste 59 Noroeste 0 1010.5 -0.4 69
2019-04-22 19:00:00 19.9 44 Noroeste 63 Noroeste 0 1011.2 -0.6 66
2019-04-22 18:00:00 20.2 45 Noroeste 65 Noroeste 0 1011.2 -0.8 67
2019-04-22 17:00:00 20.5 37 Norte 50 Noroeste 0 1010.9 -1.5 66
2019-04-22 16:00:00 21.5 36 Noroeste 61 Noroeste 0 1011.8 -0.6 62
2019-04-22 15:00:00 22 33 Noroeste 55 Noroeste 0 1012 -0.2 60
2019-04-22 14:00:00 20.6 36 Noroeste 58 Norte 0 1012.4 -0.3 65
2019-04-22 13:00:00 21 34 Noroeste 54 Noroeste 0 1012.4 -0.6 65
2019-04-22 12:00:00 20.1 37 Norte 61 Noroeste 0 1012.2 -0.3 67
2019-04-22 11:00:00 20.2 23 Norte 35 Norte 0 1012.7 1 69
2019-04-22 10:00:00 19.3 25 Norte 35 Norte 0 1013 1.6 70
2019-04-22 09:00:00 18.5 22 Oeste 45 Norte 0 1012.5 0.9 69
2019-04-22 08:00:00 18.3 23 Noroeste 46 Noroeste 0 1011.7 -0.1 70
2019-04-22 07:00:00 18.4 22 Oeste 39 Noroeste 0 1011.4 -0.8 68
2019-04-22 06:00:00 18.5 28 Noroeste 42 Norte 0 1011.6 -0.8 71
2019-04-22 05:00:00 18.4 27 Noroeste 41 Norte 0 1011.8 -1 74
2019-04-22 04:00:00 18.5 24 Noroeste 42 Norte 0 1012.2 -1 76
2019-04-22 03:00:00 18.7 33 Norte 42 Norte 0 1012.4 -1.1 78
2019-04-22 02:00:00 19 30 Norte 41 Norte 0 1012.8 -0.8 78
2019-04-22 01:00:00 18.9 31 Norte 42 Norte 0 1013.2 -0.1 78
2019-04-22 00:00:00 18.9 33 Norte 45 Norte 0 1013.5 0.7 79
2019-04-21 23:00:00 19 36 Norte 45 Norte 0 1013.6 1.2 79
2019-04-21 22:00:00 18.9 29 Norte 41 Norte 0 1013.3 0.7 79
2019-04-21 21:00:00 19.2 30 Norte 37 Norte 0 1012.8 0.1 77
2019-04-21 20:00:00 19.5 26 Norte 33 Norte 0 1012.4 -0.6 75
2019-04-21 19:00:00 19.9 26 Norte 35 Noroeste 0 1012.6 -0.9 72
2019-04-21 18:00:00 20.2 27 Norte 39 Norte 0 1012.7 -1 68
2019-04-21 17:00:00 20.6 25 Norte 39 Norte 0 1013 -1 65
2019-04-21 16:00:00 21.1 27 Norte 37 Norte 0 1013.5 -0.7 65
2019-04-21 15:00:00 20.9 30 Norte 39 Norte 0 1013.7 -0.7 67
2019-04-21 14:00:00 20.6 24 Norte 35 Norte 0 1014 -0.2 66
2019-04-21 13:00:00 21 22 Norte 33 Norte 0 1014.2 0.5 64
2019-04-21 12:00:00 20.9 27 Norte 35 Norte 0 1014.4 1.1 66
2019-04-21 11:00:00 20.1 29 Norte 42 Norte 0 1014.2 -- 68
2019-04-21 10:00:00 19.4 33 Norte 42 Nordeste 0 1013.7 -- 72
2019-04-21 09:00:00 18.8 22 Norte -- -- -- 1013.3 -- 74
2019-04-21 08:00:00 -- -- -- -- -- -- -- -- --
2019-04-21 07:00:00 -- -- -- -- -- -- -- -- --
2019-04-21 06:00:00 -- -- -- -- -- -- -- -- --
2019-04-21 05:00:00 -- -- -- -- -- -- -- -- --
2019-04-21 04:00:00 -- -- -- -- -- -- -- -- --
2019-04-21 03:00:00 -- -- -- -- -- -- -- -- --
2019-04-21 02:00:00 18.6 24 Norte 37 Norte 0 1013.9 -0.5 74
2019-04-21 01:00:00 18.4 27 Norte 42 Norte 0 1014.4 0.6 72
2019-04-21 00:00:00 18.7 36 Norte 46 Nordeste 0 1014.6 0.9 75
2019-04-20 23:00:00 18.7 33 Norte 45 Norte 0 1014.4 0.9 74
2019-04-20 22:00:00 18.6 40 Nordeste 46 Norte 0 1013.8 0.9 74
2019-04-20 21:00:00 18.7 26 Norte 35 Norte 0 1013.7 0.7 73
2019-04-20 20:00:00 18.5 27 Norte 37 Norte 0 1013.5 0.2 72
2019-04-20 19:00:00 18.7 29 Norte 41 Norte 0 1012.9 -1 71
2019-04-20 18:00:00 19.2 28 Norte 39 Norte 0 1013 -1.3 69
2019-04-20 17:00:00 19.8 26 Norte 41 Norte 0 1013.3 -1.3 66
2019-04-20 16:00:00 19.8 34 Norte 45 Norte 0 1013.9 -0.8 68
2019-04-20 15:00:00 20.7 26 Norte 35 Norte 0 1014.3 -0.6 58
2019-04-20 14:00:00 19.6 28 Norte 42 Norte 0 1014.6 -0.2 66
2019-04-20 13:00:00 20.1 38 Norte 42 Norte 0 1014.7 0.2 62
2019-04-20 12:00:00 19.3 26 Norte 37 Nordeste 0 1014.9 1 64
2019-04-20 11:00:00 19.3 30 Norte 39 Norte 0 1014.8 1.5 63
2019-04-20 10:00:00 19.7 23 Norte 41 Norte 0 1014.5 1.2 62
2019-04-20 09:00:00 18.9 31 Norte 45 Norte 0 1013.9 0.4 67
2019-04-20 08:00:00 18.3 35 Norte 48 Norte 0 1013.3 -0.4 72
2019-04-20 07:00:00 18.2 35 Norte 46 Norte 0 1013.3 -0.8 72
2019-04-20 06:00:00 18.3 31 Norte 41 Norte 0 1013.5 -1.2 73
2019-04-20 05:00:00 18.4 32 Norte 42 Norte 0 1013.7 -1.9 73
2019-04-20 04:00:00 18.6 34 Norte 45 Norte 0 1014.1 -2 73
2019-04-20 03:00:00 18.4 30 Norte 45 Norte 0 1014.7 -1.9 71
2019-04-20 02:00:00 18.2 36 Norte 50 Norte 0 1015.6 -1 72
2019-04-20 01:00:00 18.5 38 Norte 48 Norte 0 1016.1 -0.3 71
2019-04-20 00:00:00 18.3 34 Norte 48 Norte 0 1016.6 0.4 70
2019-04-19 23:00:00 18.3 31 Norte 46 Norte 0 1016.6 0.5 68
2019-04-19 22:00:00 18.4 39 Norte 50 Norte 0 1016.4 0.4 69
2019-04-19 21:00:00 18.5 34 Norte 46 Norte 0 1016.2 0.2 69
2019-04-19 20:00:00 18.7 32 Norte 45 Norte 0 1016.1 -0.3 66
2019-04-19 19:00:00 19.1 34 Norte 45 Norte 0 1016 -0.8 67
2019-04-19 18:00:00 19.4 36 Norte 45 Norte 0 1016 -1.2 68
2019-04-19 17:00:00 19.5 31 Norte 41 Norte 0 1016.4 -1.3 69
2019-04-19 16:00:00 20.3 28 Norte 42 Norte 0 1016.8 -1.4 63
2019-04-19 15:00:00 20.5 30 Norte 37 Norte 0 1017.2 -0.9 65
2019-04-19 14:00:00 20.3 28 Norte 39 Norte 0 1017.7 0 64
2019-04-19 13:00:00 20.2 31 Norte 45 Nordeste 0 1018.2 1.2 62
2019-04-19 12:00:00 20.2 34 Norte 48 Norte 0 1018.1 1.4 61
2019-04-19 11:00:00 19.9 38 Norte 50 Norte 0 1017.7 1.7 62
2019-04-19 10:00:00 19.5 37 Norte 46 Norte 0 1017 1.1 65
2019-04-19 09:00:00 18.8 36 Norte 50 Norte 0 1016.7 0.9 68
2019-04-19 08:00:00 18.2 43 Norte 54 Norte 0 1016 0.3 73
2019-04-19 07:00:00 18.1 41 Norte 55 Norte 0 1015.9 -0.4 69
2019-04-19 06:00:00 18.3 42 Norte 52 Norte 0 1015.8 -1 72
2019-04-19 05:00:00 18.4 46 Norte 54 Norte 0 1015.7 -1.8 72
2019-04-19 04:00:00 18.3 36 Norte 52 Norte 0 1016.3 -1.5 74
2019-04-19 03:00:00 18.4 35 Norte 48 Norte 0 1016.8 -1.2 73
2019-04-19 02:00:00 18.4 35 Norte 48 Norte 0 1017.5 -0.3 73
2019-04-19 01:00:00 18.6 37 Norte 46 Norte 0 1017.8 0.4 73
2019-04-19 00:00:00 18.7 32 Norte 45 Norte 0 1018 1.1 72
2019-04-18 23:00:00 18.6 34 Norte 42 Norte 0 1017.8 1.4 71
2019-04-18 22:00:00 18.7 32 Norte 45 Norte 0 1017.4 1.3 71
2019-04-18 21:00:00 18.9 28 Norte 39 Norte 0 1016.9 0.7 71
2019-04-18 20:00:00 18.9 33 Norte 42 Norte 0 1016.4 0 70
2019-04-18 19:00:00 19.2 33 Norte 41 Norte 0 1016.1 -0.4 67
2019-04-18 18:00:00 19.7 35 Norte 45 Norte 0 1016.2 -0.6 65
2019-04-18 17:00:00 20.3 28 Norte 37 Norte 0 1016.4 -0.7 65
2019-04-18 16:00:00 20.7 30 Norte 37 Norte 0 1016.5 -0.7 61
2019-04-18 15:00:00 20.8 30 Norte 42 Norte 0 1016.8 -0.3 63
2019-04-18 14:00:00 21 30 Norte 41 Norte 0 1017.1 0.2 59
2019-04-18 13:00:00 20.9 32 Norte 45 Norte 0 1017.2 0.6 61
2019-04-18 12:00:00 20.6 32 Norte 45 Norte 0 1017.1 1.3 62
2019-04-18 11:00:00 20.2 31 Norte 45 Norte 0 1016.9 1.5 62
2019-04-18 10:00:00 19.6 36 Norte 46 Norte 0 1016.6 1.9 66
2019-04-18 09:00:00 18.9 40 Norte 48 Norte 0 1015.8 1.5 71
2019-04-18 08:00:00 18.3 29 Norte 45 Norte 0 1015.4 1.2 71
2019-04-18 07:00:00 18.3 39 Norte 48 Norte 0 1014.7 0.3 72
2019-04-18 06:00:00 18.5 38 Norte 50 Norte 0 1014.3 -0.7 73
2019-04-18 05:00:00 18.8 36 Norte 46 Nordeste 0 1014.2 -1.2 72
2019-04-18 04:00:00 18.5 36 Norte 46 Nordeste 0 1014.4 -1.4 71
2019-04-18 03:00:00 18.8 34 Norte 46 Norte 0 1015 -0.9 72
2019-04-18 02:00:00 18.6 34 Norte 45 Noroeste 0 1015.4 0.1 72
2019-04-18 01:00:00 18.9 29 Norte 39 Noroeste 0 1015.8 1.4 70
2019-04-18 00:00:00 18.9 28 Noroeste 41 Norte 0 1015.9 2.4 70
2019-04-17 23:00:00 18.9 27 Noroeste 41 Noroeste 0 1015.3 2.3 69
2019-04-17 22:00:00 18.9 25 Noroeste 39 Noroeste 0 1014.4 1.8 67
2019-04-17 21:00:00 18.9 24 Noroeste 35 Noroeste 0 1013.5 1.1 66
2019-04-17 20:00:00 19.2 25 Noroeste 37 Norte 0 1013 0.5 67
2019-04-17 19:00:00 19.4 29 Norte 37 Norte 0 1012.6 -0.1 66
2019-04-17 18:00:00 20.5 26 Noroeste 39 Noroeste 0 1012.4 -0.4 63
2019-04-17 17:00:00 19.8 25 Noroeste 33 Norte 0 1012.5 -0.5 64
2019-04-17 16:00:00 19.9 24 Norte 35 Noroeste 0 1012.7 -0.5 69
2019-04-17 15:00:00 20.1 18 Noroeste 30 Noroeste 0 1012.8 -0.2 71
2019-04-17 14:00:00 19.9 23 Norte 33 Noroeste 0 1013 0.6 72
2019-04-17 13:00:00 20.6 23 Noroeste 32 Norte 0 1013.2 1.2 69
2019-04-17 12:00:00 20 22 Noroeste 32 Norte 0 1013 1.6 71
2019-04-17 11:00:00 19.8 22 Noroeste 39 Noroeste 0 1012.4 1.5 75
2019-04-17 10:00:00 19.6 13 Oeste 28 Noroeste 0 1012 1.6 73
2019-04-17 09:00:00 20.1 16 Noroeste 39 Noroeste 0 1011.4 1.1 63
2019-04-17 08:00:00 19.2 16 Oeste 37 Oeste 0 1010.9 0.4 64
2019-04-17 07:00:00 19.1 12 Oeste 24 Oeste 0 1010.4 -0.1 62
2019-04-17 06:00:00 19 14 Oeste 37 Oeste 0 1010.3 -1.1 63
2019-04-17 05:00:00 18.8 15 Oeste 39 Noroeste 0 1010.5 -1.2 62
2019-04-17 04:00:00 18.7 16 Noroeste 41 Noroeste 0 1010.5 -1.2 61
2019-04-17 03:00:00 18.7 17 Oeste 35 Oeste 0 1011.4 -1.2 60
2019-04-17 02:00:00 18.8 14 Oeste 24 Oeste 0 1011.7 -0.4 55
2019-04-17 01:00:00 18.3 9 Oeste 37 Oeste 0 1011.7 -0.1 61
2019-04-17 00:00:00 18.6 21 Noroeste 48 Noroeste 0 1012.6 1.3 65
2019-04-16 23:00:00 18.8 14 Noroeste 50 Noroeste 0 1012.1 1.3 68
2019-04-16 22:00:00 19.3 26 Noroeste 41 Noroeste 0 1011.8 1.3 70
2019-04-16 21:00:00 19.5 23 Noroeste 45 Norte 0 1011.3 0.7 72
2019-04-16 20:00:00 19.8 28 Noroeste 45 Noroeste 0 1010.8 -0.4 71
2019-04-16 19:00:00 21.6 19 Noroeste 37 Noroeste 0 1010.5 -1.9 63
2019-04-16 18:00:00 20.4 9 Este 17 Este 0 1010.6 -2.7 73
2019-04-16 17:00:00 20.6 10 Este 15 Este 0 1011.2 -2.8 72
2019-04-16 16:00:00 20.6 9 Nordeste 11 Este 0 1012.4 -2 72
2019-04-16 15:00:00 20.4 9 Norte 17 Norte 0 1013.3 -1.3 72
2019-04-16 14:00:00 20.5 10 Norte 22 Norte 0 1014 -0.4 71
2019-04-16 13:00:00 20.4 10 Este 18 Este 0 1014.4 0.4 72
2019-04-16 12:00:00 20.3 10 Sudeste 17 Sudeste 0 1014.6 0.6 70
2019-04-16 11:00:00 20.8 5 Este 30 Noroeste 0 1014.4 1 67
2019-04-16 10:00:00 20.5 16 Noroeste 26 Norte 0 1014 1.1 68
2019-04-16 09:00:00 19.8 10 Noroeste 26 Noroeste 0 1014 1.1 69
2019-04-16 08:00:00 19 18 Oeste 30 Oeste 0 1013.4 0.1 71
2019-04-16 07:00:00 18.6 15 Oeste 22 Oeste 0 1012.9 -0.9 73
2019-04-16 06:00:00 18.6 12 Noroeste 18 Noroeste 0 1012.9 -1.5 77
2019-04-16 05:00:00 18.4 12 Noroeste 21 Norte 0 1013.3 -1.8 84
2019-04-16 04:00:00 18.9 15 Norte 24 Norte 0 1013.8 -2 85
2019-04-16 03:00:00 19 18 Norte 26 Norte 0 1014.4 -1.8 85
2019-04-16 02:00:00 19.1 15 Noroeste 28 Norte 0 1015.1 -1.3 85
2019-04-16 01:00:00 19.1 12 Norte 22 Norte 0 1015.8 -0.1 82
2019-04-16 00:00:00 19.1 19 Norte 22 Norte 0 1016.2 0.6 81
2019-04-15 23:00:00 19.4 18 Norte 24 Norte 0 1016.4 1.3 81
2019-04-15 22:00:00 20 18 Norte 24 Norte 0 1015.9 1 76
2019-04-15 21:00:00 19.9 3 Nordeste 8 Norte 0 1015.6 0.5 71
2019-04-15 20:00:00 20.2 5 Nordeste 15 Este 0 1015.1 -0.1 70
2019-04-15 19:00:00 21.3 10 Sudeste 21 Sudeste 0 1014.9 -1 64
2019-04-15 18:00:00 21.1 12 Sudeste 24 Sudeste 0 1015.1 -1.2 67
2019-04-15 17:00:00 22 15 Sudeste 30 Sudeste 0 1015.2 -1.3 63
2019-04-15 16:00:00 22 19 Sudeste 28 Sudeste 0 1015.9 -0.7 63
2019-04-15 15:00:00 20.9 15 Sudeste 24 Este 0 1016.3 -0.6 70
2019-04-15 14:00:00 22.3 17 Nordeste 30 Nordeste 0 1016.5 -0.2 64
2019-04-15 13:00:00 22.1 17 Noroeste 30 Noroeste 0 1016.6 0.6 63
2019-04-15 12:00:00 21.1 18 Noroeste 30 Norte 0 1016.9 1.7 71
2019-04-15 11:00:00 20.9 18 Norte 30 Noroeste 0 1016.7 1.9 68
2019-04-15 10:00:00 19.9 19 Noroeste 35 Noroeste 0 1016 1.5 71
2019-04-15 09:00:00 19.2 19 Noroeste 30 Noroeste 0 1015.2 0.8 67
2019-04-15 08:00:00 19 21 Oeste 37 Noroeste 0 1014.8 0.4 67
2019-04-15 07:00:00 19.2 27 Oeste 46 Oeste 0 1014.5 0 66
2019-04-15 06:00:00 18.8 25 Noroeste 37 Noroeste 0 1014.4 -0.2 67
2019-04-15 05:00:00 18.6 15 Noroeste 32 Oeste 0 1014.4 -0.7 69
2019-04-15 04:00:00 18.6 21 Noroeste 41 Noroeste 0 1014.5 -0.8 71
2019-04-15 03:00:00 18.6 27 Noroeste 50 Noroeste 0 1014.6 -0.7 71
2019-04-15 02:00:00 18.7 30 Noroeste 52 Noroeste 0 1015.1 0.4 72
2019-04-15 01:00:00 18.6 32 Noroeste 52 Norte 0 1015.3 1.4 70
2019-04-15 00:00:00 18.8 31 Noroeste 48 Noroeste 0 1015.3 2.1 71
2019-04-14 23:00:00 18.9 32 Noroeste 46 Noroeste 0 1014.7 1.7 72
2019-04-14 22:00:00 18.9 25 Noroeste 42 Norte 0 1013.9 0.8 71
2019-04-14 21:00:00 19.1 22 Noroeste 45 Noroeste 0 1013.2 0.6 71
2019-04-14 20:00:00 19.8 21 Noroeste 45 Norte 0 1013 0.3 69
2019-04-14 19:00:00 20.4 23 Noroeste 48 Noroeste 0 1013.1 -0.1 65
2019-04-14 18:00:00 20.8 26 Norte 39 Norte 0 1012.6 -1.1 68
2019-04-14 17:00:00 20.6 26 Norte 41 Norte 0 1012.7 -1.2 68
2019-04-14 16:00:00 20.7 29 Norte 39 Norte 0 1013.2 -1.3 66
2019-04-14 15:00:00 21.3 25 Norte 37 Norte 0 1013.7 -0.9 65
2019-04-14 14:00:00 20.8 30 Noroeste 45 Noroeste 0 1013.9 -0.7 64
2019-04-14 13:00:00 21.2 23 Noroeste 45 Norte 0 1014.5 0.4 63
2019-04-14 12:00:00 20.6 20 Norte 35 Noroeste 0 1014.6 0.6 66
2019-04-14 11:00:00 20.6 9 Norte 15 Norte 0 1014.6 1 67
2019-04-14 10:00:00 19.8 9 Este 24 Oeste 0 1014.1 1 68
2019-04-14 09:00:00 18.5 14 Noroeste 26 Noroeste 0 1014 1.1 71
2019-04-14 08:00:00 16.7 14 Oeste 18 Oeste 0 1013.6 0.2 76
2019-04-14 07:00:00 18.3 14 Norte 24 Nordeste 0 1013.1 -0.9 77
2019-04-14 06:00:00 18.2 14 Norte 24 Norte 0 1012.9 -1.6 77
2019-04-14 05:00:00 18.2 17 Norte 30 Norte 0 1013.4 -1.9 75
2019-04-14 04:00:00 18.3 24 Norte 30 Norte 0 1014 -1.9 76
2019-04-14 03:00:00 18.2 19 Noroeste 32 Norte 0 1014.5 -1.5 74
2019-04-14 02:00:00 18.3 24 Norte 35 Norte 0 1015.3 -1.2 75
2019-04-14 01:00:00 18.5 28 Norte 37 Norte 0 1015.9 -0.3 79
2019-04-14 00:00:00 18.5 25 Noroeste 35 Noroeste 0 1016 0.5 77
2019-04-13 23:00:00 18.6 26 Norte 37 Norte 0 1016.5 1 76
2019-04-13 22:00:00 18.8 28 Norte 39 Norte 0 1016.2 0.9 77
2019-04-13 21:00:00 19 25 Norte 32 Norte 0 1015.5 -0.1 77
2019-04-13 20:00:00 18.9 20 Nordeste 32 Nordeste 0 1015.5 -0.3 74
2019-04-13 19:00:00 19.3 28 Nordeste 33 Nordeste 0 1015.3 -0.8 75
2019-04-13 18:00:00 19.9 24 Norte 32 Norte 0 1015.6 -1 71
2019-04-13 17:00:00 20.6 22 Norte 28 Norte 0 1015.8 -1.3 67
2019-04-13 16:00:00 20.7 23 Norte 32 Norte 0 1016.1 -1.4 66
2019-04-13 15:00:00 21.2 24 Norte 33 Norte 0 1016.6 -1.1 63
2019-04-13 14:00:00 21.1 27 Norte 33 Norte 0 1017.1 -0.4 66
2019-04-13 13:00:00 20.7 25 Norte 35 Norte 0 1017.5 0 62
2019-04-13 12:00:00 20.5 31 Norte 41 Norte 0 1017.7 0.3 62
2019-04-13 11:00:00 20.3 28 Norte 37 Norte 0 1017.5 0.6 64
2019-04-13 10:00:00 19.3 25 Norte 35 Norte 0 1017.5 1.2 67
2019-04-13 09:00:00 18.9 24 Norte 39 Nordeste 0 1017.4 1.4 72
2019-04-13 08:00:00 18.4 29 Norte 37 Norte 0 1016.9 0.6 73
2019-04-13 07:00:00 18.3 28 Norte 37 Norte 0 1016.3 -0.3 72
2019-04-13 06:00:00 18.3 26 Norte 42 Norte 0 1016 -1.4 72
2019-04-13 05:00:00 18.5 30 Norte 46 Norte 0 1016.3 -1.6 71
2019-04-13 04:00:00 18.2 28 Norte 42 Norte 0 1016.6 -1.7 71
2019-04-13 03:00:00 18.1 28 Norte 45 Norte 0 1017.4 -1.1 71
2019-04-13 02:00:00 18.1 30 Norte 39 Norte 0 1017.9 -0.5 71
2019-04-13 01:00:00 18.2 25 Norte 41 Norte 0 1018.3 0.6 70
2019-04-13 00:00:00 18.1 30 Norte 39 Norte 0 1018.5 1.5 71
2019-04-12 23:00:00 18.2 28 Norte 39 Norte 0 1018.4 1.8 72
2019-04-12 22:00:00 18.2 28 Norte 37 Norte 0 1017.7 0.8 71
2019-04-12 21:00:00 18.4 31 Norte 41 Norte 0 1017 0.1 72
2019-04-12 20:00:00 18.5 27 Norte 39 Norte 0 1016.6 -0.4 70
2019-04-12 19:00:00 18.8 28 Norte 41 Norte 0 1016.9 0.2 66
2019-04-12 18:00:00 19.1 30 Norte 39 Norte 0 1016.9 -0.2 67
2019-04-12 17:00:00 19.9 30 Norte 41 Norte 0 1017 -1.1 64
2019-04-12 16:00:00 20.3 28 Norte 39 Norte 0 1016.7 -2 64
2019-04-12 15:00:00 20.1 24 Norte 35 Norte 0 1017.1 -1.2 66
2019-04-12 14:00:00 19.9 27 Norte 42 Norte 0 1018.1 0.1 65
2019-04-12 13:00:00 20.2 31 Norte 42 Norte 0 1018.7 0.7 59
2019-04-12 12:00:00 20.2 32 Norte 41 Norte 0 1018.3 0.5 63
2019-04-12 11:00:00 20 27 Norte 39 Norte 0 1018 0.4 61
2019-04-12 10:00:00 18.8 30 Norte 41 Norte 0 1018 0.7 65
2019-04-12 09:00:00 18.4 27 Norte 45 Norte 0 1017.8 0.7 62
2019-04-12 08:00:00 17.8 35 Norte 46 Norte 0 1017.6 0.1 69
2019-04-12 07:00:00 17.7 29 Norte 45 Norte 0 1017.3 -0.3 66
2019-04-12 06:00:00 17.9 35 Norte 50 Norte 0 1017.1 -0.6 66
2019-04-12 05:00:00 17.9 32 Norte 46 Norte 0 1017.5 -0.8 66
2019-04-12 04:00:00 17.9 33 Norte 46 Norte 0 1017.6 -1.4 68
2019-04-12 03:00:00 18 35 Norte 45 Norte 0 1017.7 -1.6 69
2019-04-12 02:00:00 18.1 27 Norte 42 Norte 0 1018.3 -0.8 68
2019-04-12 01:00:00 18.2 32 Norte 42 Norte 0 1019 0.3 70
2019-04-12 00:00:00 18.3 35 Norte 50 Norte 0 1019.3 1.5 67
2019-04-11 23:00:00 18.3 34 Norte 45 Norte 0 1019.1 2 68
2019-04-11 22:00:00 18.2 34 Norte 45 Norte 0 1018.7 1.5 69
2019-04-11 21:00:00 18.3 31 Norte 42 Norte 0 1017.8 0.7 69
2019-04-11 20:00:00 18.4 34 Norte 45 Norte 0 1017.1 -0.3 69
2019-04-11 19:00:00 18.8 36 Norte 48 Norte 0 1017.2 -0.7 69
2019-04-11 18:00:00 19.1 32 Norte 46 Norte 0 1017.1 -1.2 66
2019-04-11 17:00:00 19.9 28 Norte 37 Norte 0 1017.4 -1.1 62
2019-04-11 16:00:00 20.4 26 Norte 35 Norte 0 1017.9 -1.2 58
2019-04-11 15:00:00 20 30 Norte 39 Norte 0 1018.3 -1.2 60
2019-04-11 14:00:00 19.8 32 Norte 41 Norte 0 1018.5 -0.8 63
2019-04-11 13:00:00 20.2 32 Norte 42 Norte 0 1019.1 0 60
2019-04-11 12:00:00 19.8 31 Norte 45 Norte 0 1019.5 0.8 58
2019-04-11 11:00:00 18.8 28 Norte 41 Norte 0 1019.3 1.2 63
2019-04-11 10:00:00 18.5 29 Norte 45 Norte 0 1019.1 1.7 61
2019-04-11 09:00:00 18.4 33 Norte 50 Norte 0 1018.7 1.7 65
2019-04-11 08:00:00 18.1 35 Norte 45 Norte 0 1018.1 1 69
2019-04-11 07:00:00 18 35 Norte 46 Norte 0 1017.4 -0.1 68
2019-04-11 06:00:00 18.1 33 Norte 45 Norte 0 1017 -0.9 67
2019-04-11 05:00:00 18.1 32 Norte 41 Norte 0 1017.1 -1 70
2019-04-11 04:00:00 18.1 31 Norte 45 Norte 0 1017.5 -1.2 68
2019-04-11 03:00:00 18.1 31 Norte 42 Norte 0 1017.9 -1 68
2019-04-11 02:00:00 18.1 29 Norte 41 Norte 0 1018.1 -0.6 70
2019-04-11 01:00:00 18.2 30 Norte 45 Norte 0 1018.7 0.4 70
2019-04-11 00:00:00 18.2 35 Norte 45 Norte 0 1018.9 1 70
2019-04-10 23:00:00 18.3 32 Norte 42 Norte 0 1018.7 1.2 71
2019-04-10 22:00:00 18.5 31 Norte 41 Norte 0 1018.3 1.1 70
2019-04-10 21:00:00 18.5 29 Norte 45 Norte 0 1017.9 0.9 68
2019-04-10 20:00:00 18.8 37 Norte 45 Norte 0 1017.5 0.4 64
2019-04-10 19:00:00 18.8 36 Norte 45 Norte 0 1017.2 -0.3 66
2019-04-10 18:00:00 19.2 30 Norte 39 Norte 0 1017 -0.7 67
2019-04-10 17:00:00 19.3 31 Norte 41 Norte 0 1017.1 -1.1 64
2019-04-10 16:00:00 19.5 32 Norte 42 Norte 0 1017.5 -1 63
2019-04-10 15:00:00 19.6 34 Norte 42 Norte 0 1017.7 -0.9 66
2019-04-10 14:00:00 20.1 34 Norte 42 Nordeste 0 1018.2 -0.2 66
2019-04-10 13:00:00 20.2 28 Norte 35 Norte 0 1018.5 0.8 67
2019-04-10 12:00:00 20.8 24 Norte 32 Norte 0 1018.6 1.2 62
2019-04-10 11:00:00 19.9 21 Norte 46 Nordeste 0 1018.4 1.4 63
2019-04-10 10:00:00 19 36 Nordeste 54 Nordeste 0 1017.7 0.7 64
2019-04-10 09:00:00 18.5 35 Nordeste 45 Nordeste 0 1017.4 0.4 66
2019-04-10 08:00:00 18.1 31 Norte 41 Nordeste 0 1017 0.1 70
2019-04-10 07:00:00 18 28 Norte 39 Norte 0 1017 0 70
2019-04-10 06:00:00 18.1 25 Norte 42 Nordeste 0 1017 0 69
2019-04-10 05:00:00 18.1 24 Norte 39 Norte 0 1016.9 -0.4 70
2019-04-10 04:00:00 18.1 30 Norte 45 Norte 0 1017 -0.5 72
2019-04-10 03:00:00 18.2 34 Norte 45 Norte 0 1017 -0.8 73
2019-04-10 02:00:00 18.2 31 Norte 41 Norte 0 1017.3 -0.7 74
2019-04-10 01:00:00 18.4 30 Norte 42 Norte 0 1017.5 0.2 75
2019-04-10 00:00:00 18.5 32 Norte 41 Nordeste 0 1017.8 1.1 74
2019-04-09 23:00:00 18.7 31 Norte 41 Nordeste 0 1018 1.4 75
2019-04-09 22:00:00 19 34 Norte 41 Norte 0 1017.3 1 78
2019-04-09 21:00:00 19.3 28 Norte 35 Norte 0 1016.7 0.5 77
2019-04-09 20:00:00 18.7 18 Norte 32 Norte 0 1016.6 0.1 80
2019-04-09 19:00:00 19 29 Norte 33 Norte 0 1016.3 -0.6 81
2019-04-09 18:00:00 19.9 18 Norte 32 Norte 0 1016.2 -1.4 72
2019-04-09 17:00:00 20.9 16 Norte 24 Norte 0 1016.5 -1.6 66
2019-04-09 16:00:00 21.4 14 Norte 22 Norte 0 1016.9 -1.7 64
2019-04-09 15:00:00 21 12 Norte 18 Nordeste 0 1017.6 -1.1 64
2019-04-09 14:00:00 21.1 9 Nordeste 15 Nordeste 0 1018.1 -0.4 63
2019-04-09 13:00:00 20.8 10 Este 21 Nordeste 0 1018.6 0.4 65
2019-04-09 12:00:00 20.4 14 Norte 21 Norte 0 1018.7 0.6 66
2019-04-09 11:00:00 20.9 13 Norte 21 Norte 0 1018.5 0.7 65
2019-04-09 10:00:00 20.1 6 Norte 15 Norte 0 1018.2 0.8 64
2019-04-09 09:00:00 18.9 12 Norte 18 Nordeste 0 1018.1 1 69
2019-04-09 08:00:00 17.9 14 Norte 22 Norte 0 1017.8 0.7 70
2019-04-09 07:00:00 17.9 19 Norte 24 Norte 0 1017.4 -0.1 71
2019-04-09 06:00:00 18.1 18 Norte 24 Norte 0 1017.1 -0.7 71
2019-04-09 05:00:00 18.2 16 Norte 26 Norte 0 1017.1 -1 69
2019-04-09 04:00:00 18.1 14 Norte 22 Norte 0 1017.5 -0.8 66
2019-04-09 03:00:00 18 15 Norte 24 Norte 0 1017.8 -0.7 66
2019-04-09 02:00:00 18.1 17 Norte 24 Norte 0 1018.1 -0.9 66
2019-04-09 01:00:00 18.1 18 Norte 28 Norte 0 1018.3 -0.3 65
2019-04-09 00:00:00 18.2 22 Norte 30 Norte 0 1018.5 0.9 65
2019-04-08 23:00:00 18.4 24 Norte 30 Norte 0 1019 1.5 65
2019-04-08 22:00:00 18.5 18 Norte 32 Norte 0 1018.6 1.3 64
2019-04-08 21:00:00 18.7 23 Norte 32 Norte 0 1017.6 0.3 63
2019-04-08 20:00:00 18.9 22 Norte 30 Norte 0 1017.5 0 62
2019-04-08 19:00:00 19.3 19 Norte 28 Norte 0 1017.3 -0.5 60
2019-04-08 18:00:00 19.7 21 Norte 26 Norte 0 1017.3 -0.9 62
2019-04-08 17:00:00 20.3 16 Norte 24 Norte 0 1017.5 -1.3 60
2019-04-08 16:00:00 20.3 15 Norte 22 Norte 0 1017.8 -1.4 57
2019-04-08 15:00:00 19.6 12 Norte 24 Nordeste 0 1018.2 -1.1 61
2019-04-08 14:00:00 19.1 14 Norte 24 Norte 0 1018.8 -0.5 64
2019-04-08 13:00:00 18.9 17 Norte 24 Nordeste 0 1019.2 -0.1 68
2019-04-08 12:00:00 18.9 16 Norte 22 Norte 0 1019.3 0.6 70
2019-04-08 11:00:00 19 17 Norte 22 Norte 0 1019.3 1.3 69
2019-04-08 10:00:00 18.4 13 Norte 22 Norte 0 1019.3 1.7 73
2019-04-08 09:00:00 18.3 16 Norte 24 Noroeste 0 1018.7 1.1 72
2019-04-08 08:00:00 17.6 12 Noroeste 21 Noroeste 0 1018 0.2 75
2019-04-08 07:00:00 17.1 12 Oeste 30 Noroeste 0 1017.6 -0.6 76
2019-04-08 06:00:00 17.4 14 Noroeste 26 Noroeste 0 1017.6 -1 75
2019-04-08 05:00:00 16.9 16 Oeste 28 Oeste 0.4 1017.8 -1.1 82
2019-04-08 04:00:00 18 14 Noroeste 28 Norte 0 1018.2 -1 76
2019-04-08 03:00:00 18.5 22 Norte 26 Norte 0 1018.6 -0.8 74
2019-04-08 02:00:00 18.1 12 Noroeste 22 Norte 0 1018.9 -0.3 73
2019-04-08 01:00:00 18.4 18 Norte 24 Norte 0 1019.2 0.5 72
2019-04-08 00:00:00 18.3 13 Noroeste 22 Noroeste 0 1019.4 1 66
2019-04-07 23:00:00 18 13 Noroeste 26 Noroeste 0 1019.2 0.8 69
2019-04-07 22:00:00 18.2 14 Noroeste 26 Norte 0 1018.7 0.5 73
2019-04-07 21:00:00 18.5 19 Noroeste 30 Noroeste 0 1018.4 0.3 73
2019-04-07 20:00:00 19 20 Norte 28 Noroeste 0 1018.4 0.4 71
2019-04-07 19:00:00 19.4 16 Noroeste 26 Norte 0 1018.2 0 65
2019-04-07 18:00:00 19.9 17 Norte 28 Noroeste 0 1018.1 -0.9 63
2019-04-07 17:00:00 20.3 19 Norte 30 Norte 0 1018 -1.7 62
2019-04-07 16:00:00 20.8 19 Norte 26 Norte 0 1018.2 -1.9 60
2019-04-07 15:00:00 20.9 17 Norte 26 Norte 0 1019 -1.1 61
2019-04-07 14:00:00 20.5 13 Norte 18 Norte 0 1019.7 0 62
2019-04-07 13:00:00 20.1 14 Norte 22 Norte 0 1020.1 0.7 63
2019-04-07 12:00:00 20.9 16 Norte 22 Norte 0 1020.1 1.1 60
2019-04-07 11:00:00 20.1 13 Norte 22 Norte 0 1019.7 1.3 62
2019-04-07 10:00:00 19.4 12 Norte 17 Norte 0 1019.4 1.4 65
2019-04-07 09:00:00 17.5 8 Noroeste 18 Norte 0 1019 1.2 69
2019-04-07 08:00:00 17.2 10 Noroeste 17 Noroeste 0 1018.4 0.6 69
2019-04-07 07:00:00 17.6 12 Norte 22 Norte 0 1018 0 72
2019-04-07 06:00:00 17.5 14 Norte 21 Norte 0 1017.8 -0.3 71
2019-04-07 05:00:00 17.5 14 Norte 24 Norte 0 1017.8 -1.1 71
2019-04-07 04:00:00 17.6 20 Norte 30 Norte 0 1018 -1 70
2019-04-07 03:00:00 17.7 21 Nordeste 26 Norte 0 1018.1 -1.1 72
2019-04-07 02:00:00 17.6 19 Norte 33 Norte 0 1018.9 -0.3 72
2019-04-07 01:00:00 17.8 31 Norte 39 Norte 0 1019 0.1 73
2019-04-07 00:00:00 18 26 Norte 35 Norte 0 1019.2 0.9 73
2019-04-06 23:00:00 17.9 26 Norte 35 Norte 0 1019.2 1.1 73
2019-04-06 22:00:00 18 26 Norte 41 Norte 0 1018.9 0.7 70
2019-04-06 21:00:00 18 33 Norte 39 Norte 0 1018.3 0.4 71
2019-04-06 20:00:00 18.1 29 Norte 39 Norte 0 1018.1 0.1 69
2019-04-06 19:00:00 18.4 29 Norte 41 Norte 0 1018.2 -0.2 68
2019-04-06 18:00:00 18.7 31 Norte 37 Norte 0 1017.9 -1.1 68
2019-04-06 17:00:00 19 30 Norte 39 Norte 0 1018 -1.4 64
2019-04-06 16:00:00 19.3 30 Norte 42 Norte 0 1018.4 -1 64
2019-04-06 15:00:00 20 25 Norte 35 Norte 0 1019 -0.1 60
2019-04-06 14:00:00 19.7 23 Norte 37 Norte 0 1019.4 0.4 54
2019-04-06 13:00:00 19.8 26 Noroeste 46 Noroeste 0 1019.4 0.9 54
2019-04-06 12:00:00 19.4 36 Norte 48 Norte 0 1019.1 1.1 56
2019-04-06 11:00:00 19.2 30 Norte 41 Norte 0 1019 1.6 59
2019-04-06 10:00:00 18.4 25 Noroeste 42 Norte 0 1018.5 1.6 59
2019-04-06 09:00:00 18.1 35 Norte 45 Norte 0 1018 1.6 64
2019-04-06 08:00:00 17.7 37 Norte 45 Norte 0 1017.4 0.9 67
2019-04-06 07:00:00 17.7 25 Noroeste 39 Norte 0 1016.9 0.5 63
2019-04-06 06:00:00 17.8 27 Norte 48 Norte 0 1016.4 -0.6 63
2019-04-06 05:00:00 17.7 36 Norte 52 Norte 0 1016.5 -0.8 68
2019-04-06 04:00:00 17.8 47 Norte 58 Nordeste 0 1016.4 -1.5 71
2019-04-06 03:00:00 18 31 Noroeste 48 Norte 0 1017 -1.2 63
2019-04-06 02:00:00 18.1 39 Norte 48 Norte 0 1017.3 -1 67
2019-04-06 01:00:00 18.2 34 Norte 48 Norte 0 1017.9 0.5 67
2019-04-06 00:00:00 18.3 29 Norte 42 Noroeste 0 1018.2 1.5 67
2019-04-05 23:00:00 17.9 28 Noroeste 46 Noroeste 0 1018.3 2.2 61
2019-04-05 22:00:00 18 35 Norte 50 Noroeste 0 1017.4 1.2 64
2019-04-05 21:00:00 18.2 34 Noroeste 48 Norte 0 1016.7 0.7 66
2019-04-05 20:00:00 18.4 33 Noroeste 50 Norte 0 1016.1 0.2 63
2019-04-05 19:00:00 18.6 33 Noroeste 48 Noroeste 0 1016.2 0 67
2019-04-05 18:00:00 19.3 30 Noroeste 46 Noroeste 0 1016 -0.9 66
2019-04-05 17:00:00 19.6 32 Noroeste 48 Norte 0 1015.9 -1.2 67
2019-04-05 16:00:00 20.6 29 Noroeste 42 Norte 0 1016.2 -1.3 60
2019-04-05 15:00:00 20.8 28 Noroeste 42 Noroeste 0 1016.9 -0.6 59
2019-04-05 14:00:00 20.4 30 Noroeste 42 Noroeste 0 1017.1 0.4 58
2019-04-05 13:00:00 20.4 27 Noroeste 41 Noroeste 0 1017.5 1.3 58
2019-04-05 12:00:00 19.3 21 Noroeste 41 Noroeste 0 1017.5 1.9 63
2019-04-05 11:00:00 19.4 33 Noroeste 45 Noroeste 0 1016.7 1.7 63
2019-04-05 10:00:00 18.1 27 Noroeste 37 Noroeste 0 1016.2 1.8 66
2019-04-05 09:00:00 18 17 Norte 33 Norte 0 1015.6 1.5 69
2019-04-05 08:00:00 17.6 28 Norte 45 Noroeste 0 1015 0.9 71
2019-04-05 07:00:00 17.2 26 Noroeste 39 Noroeste 0 1014.4 0.3 69
2019-04-05 06:00:00 17.6 35 Norte 42 Norte 0 1014.1 -0.2 75
2019-04-05 05:00:00 17.5 28 Norte 35 Norte 0.1 1014.1 -0.5 70
2019-04-05 04:00:00 17.1 27 Noroeste 41 Noroeste 0 1014.1 -0.3 70
2019-04-05 03:00:00 17.3 29 Noroeste 46 Norte 0 1014.3 0.1 69
2019-04-05 02:00:00 17.3 28 Norte 46 Norte 0 1014.6 0.7 77
2019-04-05 01:00:00 17.7 28 Norte 35 Norte 0 1014.4 0.5 77
2019-04-05 00:00:00 17.2 19 Noroeste 33 Norte 0 1014.2 1.4 77
2019-04-04 23:00:00 17.1 23 Noroeste 35 Norte 0 1013.9 1.5 73
2019-04-04 22:00:00 16.1 29 Norte 48 Norte 0.1 1013.9 1.9 85
2019-04-04 21:00:00 17.8 30 Norte 39 Norte 0 1012.8 0.7 75
2019-04-04 20:00:00 16.9 17 Noroeste 42 Norte 0.8 1012.4 0.2 82
2019-04-04 19:00:00 18.4 31 Norte 39 Norte 0 1012 -0.2 72
2019-04-04 18:00:00 18.1 21 Noroeste 41 Norte 0 1012.1 -0.1 71
2019-04-04 17:00:00 18.9 27 Norte 37 Norte 0 1012.2 -0.7 69
2019-04-04 16:00:00 19 28 Norte 41 Norte 0 1012.2 -0.8 70
2019-04-04 15:00:00 19.8 27 Norte 35 Norte 0 1012.2 -0.2 70
2019-04-04 14:00:00 19.9 22 Norte 32 Norte 0 1012.9 0.7 65
2019-04-04 13:00:00 19.4 24 Norte 41 Norte 0 1013 1.4 67
2019-04-04 12:00:00 18.9 36 Norte 46 Norte 0 1012.4 1.5 70
2019-04-04 11:00:00 19.1 31 Noroeste 48 Noroeste 0 1012.2 2.2 68
2019-04-04 10:00:00 18.4 16 Noroeste 35 Norte 0 1011.6 2 69
2019-04-04 09:00:00 17.7 27 Noroeste 42 Noroeste 0 1010.9 1.7 72
2019-04-04 08:00:00 17.1 27 Noroeste 39 Noroeste 0 1010 0.7 74
2019-04-04 07:00:00 17 24 Noroeste 45 Noroeste 0 1009.6 0.2 76
2019-04-04 06:00:00 17.2 27 Noroeste 45 Noroeste 0 1009.2 -0.5 73
2019-04-04 05:00:00 16.9 24 Noroeste 39 Noroeste 0 1009.3 -1 72
2019-04-04 04:00:00 16.7 23 Noroeste 39 Noroeste 0 1009.4 -1.3 75
2019-04-04 03:00:00 16.7 25 Noroeste 41 Noroeste 0 1009.7 -1.4 75
2019-04-04 02:00:00 16.7 24 Noroeste 45 Noroeste 0 1010.3 -0.5 72
2019-04-04 01:00:00 16.6 21 Oeste 45 Noroeste 0.3 1010.7 0.3 72
2019-04-04 00:00:00 17.4 19 Noroeste 39 Oeste 0 1011.1 1.5 64
2019-04-03 23:00:00 17.4 21 Noroeste 42 Noroeste 0 1010.8 1.6 69
2019-04-03 22:00:00 17.8 30 Noroeste 42 Noroeste 0 1010.4 1.3 68
2019-04-03 21:00:00 17.8 23 Noroeste 42 Norte 0 1009.6 0.3 69
2019-04-03 20:00:00 18.3 25 Noroeste 45 Noroeste 0 1009.2 0 66
2019-04-03 19:00:00 18.6 24 Noroeste 45 Norte 0 1009.1 -0.3 66
2019-04-03 18:00:00 19.8 17 Noroeste 46 Norte 0 1009.3 -0.6 57
2019-04-03 17:00:00 19.5 30 Noroeste 48 Noroeste 0 1009.2 -1.2 60
2019-04-03 16:00:00 19.7 27 Noroeste 45 Noroeste 0 1009.4 -1.5 58
2019-04-03 15:00:00 19.3 27 Noroeste 42 Noroeste 0 1009.9 -1.1 60
2019-04-03 14:00:00 19.6 23 Noroeste 42 Norte 0 1010.4 -0.1 59
2019-04-03 13:00:00 19.4 24 Noroeste 45 Noroeste 0 1010.9 1.1 59
2019-04-03 12:00:00 19.2 28 Noroeste 46 Noroeste 0 1011 1.7 61
2019-04-03 11:00:00 18.7 28 Noroeste 48 Oeste 0 1010.5 1.7 65
2019-04-03 10:00:00 17.9 21 Noroeste 41 Noroeste 0 1009.8 1.4 69
2019-04-03 09:00:00 17 22 Oeste 37 Oeste 0 1009.3 1.2 71
2019-04-03 08:00:00 16.5 24 Oeste 39 Oeste 0 1008.8 0.4 71
2019-04-03 07:00:00 16.5 24 Oeste 39 Oeste 0.4 1008.4 -0.4 74
2019-04-03 06:00:00 16.8 22 Oeste 39 Oeste 0 1008.1 -1 70
2019-04-03 05:00:00 16.1 13 Noroeste 30 Norte 0 1008.4 -1.3 79
2019-04-03 04:00:00 16.5 15 Oeste 26 Oeste 0 1008.8 -1.3 76
2019-04-03 03:00:00 16.4 13 Oeste 24 Oeste 0.1 1009.1 -1.1 78
2019-04-03 02:00:00 15.8 11 Oeste 37 Oeste 1.1 1009.7 -0.2 81
2019-04-03 01:00:00 16.9 12 Oeste 28 Oeste 0 1010.1 1.1 75
2019-04-03 00:00:00 17 12 Noroeste 35 Oeste 0 1010.2 2 76
2019-04-02 23:00:00 16.7 16 Noroeste 39 Norte 0 1009.9 1.9 79
2019-04-02 22:00:00 17.5 24 Norte 33 Norte 0 1009 1.1 76
2019-04-02 21:00:00 17.3 22 Norte 35 Norte 0 1008.2 0.3 74
2019-04-02 20:00:00 17.4 24 Norte 33 Norte 0 1008 0.2 76
2019-04-02 19:00:00 17.4 27 Norte 35 Norte 0 1007.9 -0.4 77
2019-04-02 18:00:00 17.5 29 Norte 35 Norte 0 1007.9 -0.8 79
2019-04-02 17:00:00 17.5 30 Norte 39 Norte 0 1007.8 -1.3 80
2019-04-02 16:00:00 17.6 27 Norte 32 Norte 0 1008.3 -1.2 80
2019-04-02 15:00:00 17.4 24 Norte 32 Norte 0 1008.7 -0.9 81
2019-04-02 14:00:00 16.6 23 Norte 33 Norte 0 1009.1 -0.2 84
2019-04-02 13:00:00 16 25 Norte 37 Nordeste 0 1009.5 0.9 87
2019-04-02 12:00:00 16 27 Norte 35 Nordeste 0 1009.6 1.3 89
2019-04-02 11:00:00 15.9 31 Norte 41 Nordeste 0.6 1009.3 1.1 89
2019-04-02 10:00:00 16.1 35 Nordeste 42 Nordeste 0 1008.6 0.6 88
2019-04-02 09:00:00 16 28 Nordeste 41 Norte 1 1008.3 0 89
2019-04-02 08:00:00 15.3 17 Norte 24 Norte 0 1008.2 -0.5 90
2019-04-02 07:00:00 14.1 10 Oeste 21 Oeste 0.6 1008 -0.7 90
2019-04-02 06:00:00 13.7 19 Noroeste 39 Noroeste 2.5 1008.3 -0.4 92
2019-04-02 05:00:00 13.8 30 Noroeste 42 Noroeste 7.8 1008.7 -0.9 93
2019-04-02 04:00:00 15 15 Noroeste 39 Norte 6.9 1008.7 -1.4 88
2019-04-02 03:00:00 16.5 27 Norte 37 Norte 0 1008.7 -1.5 81
2019-04-02 02:00:00 15.9 16 Norte 37 Norte 0 1009.6 -0.8 84
2019-04-02 01:00:00 15.5 32 Norte 46 Nordeste 0 1010.1 0 85
2019-04-02 00:00:00 15.7 35 Norte 52 Nordeste 0.4 1010.2 0.7 88
2019-04-01 23:00:00 16.3 39 Norte 48 Norte 2.5 1010.4 1.3 91
2019-04-01 22:00:00 16.9 17 Norte 33 Noroeste 7.3 1010.1 1 89
2019-04-01 21:00:00 17.6 22 Noroeste 30 Noroeste 1.4 1009.5 0.2 80
2019-04-01 20:00:00 18.9 9 Norte 17 Norte 0 1009.1 0 73
2019-04-01 19:00:00 19.6 10 Norte 21 Noroeste 0 1009.1 -0.7 69
2019-04-01 18:00:00 19.8 13 Noroeste 28 Sudeste 0 1009.3 -1.1 65
2019-04-01 17:00:00 21.5 16 Sudeste 26 Sudeste 0 1009.1 -2.1 60
2019-04-01 16:00:00 21 15 Sudeste 28 Sudeste 0 1009.8 -2 60
2019-04-01 15:00:00 21.1 17 Sudeste 30 Sudeste 0 1010.4 -2 60
2019-04-01 14:00:00 20.1 14 Este 22 Sudeste 0 1011.2 -1.4 65
2019-04-01 13:00:00 19.7 11 Este 17 Sudeste 0 1011.8 -0.6 65
2019-04-01 12:00:00 19.8 9 Este 15 Este 0 1012.4 0.2 66
2019-04-01 11:00:00 20.4 8 Nordeste 11 Nordeste 0 1012.6 0.7 65
2019-04-01 10:00:00 19.1 3 Nordeste 17 Sudeste 0 1012.4 0.7 70
2019-04-01 09:00:00 17.4 4 Oeste 17 Sudoeste 0 1012.2 0.7 72
2019-04-01 08:00:00 16.3 14 Oeste 21 Oeste 0 1011.9 0.2 73
2019-04-01 07:00:00 16.7 13 Oeste 24 Oeste 0 1011.7 -0.4 71
2019-04-01 06:00:00 17.2 14 Oeste 24 Noroeste 0 1011.5 -0.9 68
2019-04-01 05:00:00 17 9 Oeste 22 Oeste 0 1011.7 -1.5 68
2019-04-01 04:00:00 16.9 15 Oeste 24 Oeste 0 1012.1 -1.5 68
2019-04-01 03:00:00 17.4 14 Oeste 24 Noroeste 0 1012.4 -1.4 69
2019-04-01 02:00:00 17.5 16 Oeste 24 Oeste 0 1013.2 -0.6 69
2019-04-01 01:00:00 17.5 16 Oeste 28 Oeste 0 1013.6 0.2 69
2019-04-01 00:00:00 17.8 19 Oeste 33 Noroeste 0 1013.8 0.7 67
2019-03-31 23:00:00 18 25 Noroeste 33 Noroeste 0 1013.8 0.8 66
2019-03-31 22:00:00 17.9 23 Noroeste 35 Noroeste 0 1013.4 0.3 66
2019-03-31 21:00:00 18.2 22 Noroeste 32 Noroeste 0 1013.1 0.4 64
2019-03-31 20:00:00 18.4 22 Noroeste 33 Noroeste 0 1013 0 65
2019-03-31 19:00:00 18.6 23 Noroeste 37 Oeste 0 1013.1 -0.3 66
2019-03-31 18:00:00 19 28 Noroeste 39 Noroeste 0 1012.7 -1.3 66
2019-03-31 17:00:00 19.8 27 Noroeste 37 Noroeste 0 1013 -1.6 63
2019-03-31 16:00:00 20.1 22 Noroeste 37 Noroeste 0 1013.4 -1.3 62
2019-03-31 15:00:00 20.1 24 Noroeste 35 Noroeste 0 1014 -0.6 67
2019-03-31 14:00:00 20.1 26 Noroeste 35 Noroeste 0 1014.6 0 69
2019-03-31 13:00:00 19.7 23 Noroeste 37 Noroeste 0 1014.7 0.1 69
2019-03-31 12:00:00 20.1 28 Noroeste 39 Noroeste 0 1014.6 0.6 69
2019-03-31 11:00:00 19.7 27 Noroeste 37 Noroeste 0 1014.6 1.1 71
2019-03-31 10:00:00 18.4 25 Noroeste 39 Noroeste 0.1 1014.6 1.4 77
2019-03-31 09:00:00 17.9 19 Noroeste 33 Noroeste 0 1014 1.1 76
2019-03-31 08:00:00 17.5 19 Noroeste 30 Noroeste 0 1013.5 0.3 76
2019-03-31 07:00:00 17.6 17 Oeste 30 Noroeste 0 1013.2 -0.6 74
2019-03-31 06:00:00 17.5 22 Oeste 37 Oeste 0 1012.9 -2 73
2019-03-31 05:00:00 17.6 17 Oeste 28 Oeste 0 1013.2 -2.3 74
2019-03-31 04:00:00 17.7 17 Oeste 33 Noroeste 0 1013.8 -1.6 74
2019-03-31 00:00:00 18.3 22 Oeste 45 Oeste 0 1015.4 0.3 62
2019-03-30 23:00:00 18 17 Oeste 28 Noroeste 0 1015.2 0.8 63
2019-03-30 22:00:00 18.1 18 Oeste 32 Oeste 0 1015.6 1.7 65
2019-03-30 21:00:00 18.1 19 Oeste 37 Oeste 0 1015.1 1 65
2019-03-30 20:00:00 18.2 21 Noroeste 39 Noroeste 0 1014.4 0.3 63
2019-03-30 19:00:00 18.6 19 Noroeste 39 Noroeste 0 1013.9 0 64
2019-03-30 18:00:00 19.3 21 Noroeste 35 Noroeste 0 1014.1 -0.2 61
2019-03-30 17:00:00 19.2 20 Noroeste 32 Norte 0 1014.1 -0.4 63
2019-03-30 16:00:00 19.6 19 Norte 37 Noroeste 0 1013.9 -0.7 61
2019-03-30 15:00:00 20.3 25 Noroeste 37 Noroeste 0 1014.3 -0.7 59
2019-03-30 14:00:00 20.1 21 Norte 42 Noroeste 0 1014.5 -0.5 64
2019-03-30 13:00:00 20 21 Norte 32 Noroeste 0 1014.6 -0.2 63
2019-03-30 12:00:00 20 20 Norte 32 Norte 0 1015 0.7 64
2019-03-30 11:00:00 19.8 24 Norte 32 Norte 0 1015 1.4 64
2019-03-30 10:00:00 18.9 23 Noroeste 35 Noroeste 0 1014.8 1.8 63
2019-03-30 09:00:00 18.2 22 Noroeste 30 Noroeste 0 1014.3 1.8 68
2019-03-30 08:00:00 17.4 20 Noroeste 39 Norte 0 1013.6 1.2 71
2019-03-30 07:00:00 17.1 23 Noroeste 37 Noroeste 0 1013 0.4 69
2019-03-30 06:00:00 17 24 Noroeste 37 Noroeste 0 1012.5 -0.7 70
2019-03-30 05:00:00 17 24 Noroeste 33 Noroeste 0 1012.4 -1 72
2019-03-30 04:00:00 16.7 17 Oeste 30 Oeste 0 1012.6 -1.4 71
2019-03-30 03:00:00 16.5 19 Oeste 28 Oeste 0 1013.2 -0.6 71
2019-03-30 02:00:00 16.3 17 Oeste 28 Oeste 0 1013.4 -0.7 72
2019-03-30 01:00:00 16.8 17 Norte 26 Oeste 0 1014 0 72
2019-03-30 00:00:00 16.1 18 Oeste 26 Oeste 0 1013.8 0.4 68
2019-03-29 23:00:00 15.7 20 Oeste 24 Oeste 0 1014.1 1.2 68
2019-03-29 22:00:00 16.5 14 Oeste 22 Noroeste 0 1014 1.6 68
2019-03-29 21:00:00 16.4 15 Oeste 26 Oeste 0.5 1013.4 1.1 72
2019-03-29 20:00:00 16.7 16 Oeste 26 Oeste 0 1012.9 0.7 70
2019-03-29 19:00:00 17.7 16 Noroeste 22 Noroeste 0 1012.4 0 73
2019-03-29 18:00:00 18.1 11 Noroeste 28 Noroeste 0.6 1012.3 -0.4 73
2019-03-29 17:00:00 18.6 22 Noroeste 37 Oeste 0 1012.2 -1.2 65
2019-03-29 16:00:00 18.9 9 Noroeste 30 Noroeste 0 1012.4 -1.6 62
2019-03-29 15:00:00 18.3 5 Nordeste 15 Norte 0 1012.7 -1.9 70
2019-03-29 14:00:00 18.2 9 Nordeste 17 Este 0.2 1013.4 -1.3 70
2019-03-29 13:00:00 18.7 12 Nordeste 21 Nordeste 0 1014 -0.5 66
2019-03-29 12:00:00 18.7 9 Nordeste 15 Nordeste 0 1014.6 0.4 64
2019-03-29 11:00:00 19.3 10 Sudeste 18 Sudeste 0 1014.7 0.9 63
2019-03-29 10:00:00 19.5 10 Este 17 Este 0 1014.5 1.1 64
2019-03-29 09:00:00 19 9 Este 22 Noroeste 0 1014.2 1.4 60
2019-03-29 08:00:00 16.5 9 Oeste 17 Oeste 0 1013.8 1.3 62
2019-03-29 07:00:00 15.4 15 Sudoeste 26 Sudoeste 0 1013.4 0.6 67
2019-03-29 06:00:00 15.8 17 Oeste 22 Oeste 0 1012.8 -0.5 67
2019-03-29 05:00:00 15.6 13 Sudoeste 21 Sudoeste 0 1012.5 -1.2 67
2019-03-29 04:00:00 15.6 8 Sudoeste 21 Sudoeste 0 1012.8 -1.3 68
2019-03-29 03:00:00 16.2 15 Oeste 22 Oeste 0 1013.3 -1.1 69
2019-03-29 02:00:00 15.5 14 Sudoeste 21 Sudoeste 0 1013.7 -0.9 67
2019-03-29 01:00:00 15.9 11 Sudoeste 22 Sudoeste 0 1014.1 -0.5 63
2019-03-29 00:00:00 16.3 15 Oeste 21 Oeste 0 1014.4 0.1 68
2019-03-28 23:00:00 16.2 13 Oeste 18 Oeste 0 1014.6 0.7 67
2019-03-28 22:00:00 17.3 6 Oeste 22 Noroeste 0 1014.6 1.2 68
2019-03-28 21:00:00 17.9 12 Oeste 22 Noroeste 0 1014.3 1.2 72
2019-03-28 20:00:00 18.2 10 Oeste 21 Norte 0 1013.9 0.8 73
2019-03-28 19:00:00 18.6 15 Norte 24 Norte 0 1013.4 0.4 73
2019-03-28 18:00:00 18.7 16 Norte 24 Noroeste 0 1013.1 -0.5 72
2019-03-28 17:00:00 19.1 17 Norte 28 Noroeste 0 1013.1 -1 69
2019-03-28 16:00:00 19.7 18 Norte 22 Norte 0 1013 -1.5 73
2019-03-28 15:00:00 19.4 9 Norte 13 Norte 0 1013.6 -1.1 73
2019-03-28 14:00:00 19.2 6 Nordeste 17 Nordeste 0 1014.1 -0.8 73
2019-03-28 13:00:00 19.4 14 Norte 21 Nordeste 0 1014.5 -0.3 71
2019-03-28 12:00:00 20.2 14 Norte 18 Norte 0 1014.7 0.2 70
2019-03-28 11:00:00 19.6 13 Norte 26 Nordeste 0 1014.9 0.8 72
2019-03-28 10:00:00 19.2 17 Norte 24 Norte 0 1014.8 0.9 75
2019-03-28 09:00:00 17.9 3 Sudoeste 11 Noroeste 0 1014.5 1.1 76
2019-03-28 08:00:00 16.8 9 Oeste 18 Oeste 0 1014.1 0.9 80
2019-03-28 07:00:00 16.7 8 Oeste 21 Oeste 5.6 1013.9 0.7 83
2019-03-28 06:00:00 17.2 13 Oeste 21 Oeste 0.4 1013.4 0 82
2019-03-28 05:00:00 17.8 8 Noroeste 13 Oeste 0 1013.2 -0.4 79
2019-03-28 04:00:00 17.2 8 Oeste 17 Oeste 0 1013.2 -0.7 78
2019-03-28 03:00:00 17.4 9 Oeste 13 Oeste 0 1013.4 -0.6 77
2019-03-28 02:00:00 18.2 10 Norte 15 Norte 0 1013.6 -0.5 76
2019-03-28 01:00:00 18.4 12 Norte 21 Norte 0 1013.9 -0.3 75
2019-03-28 00:00:00 18.4 16 Norte 21 Norte 0 1014 0.7 75
2019-03-27 23:00:00 18.3 15 Norte 21 Norte 0 1014.1 1.4 76
2019-03-27 22:00:00 18.2 10 Noroeste 26 Norte 0.2 1014.2 1.7 76
2019-03-27 21:00:00 18.6 21 Norte 30 Norte 0.3 1013.3 1.1 76
2019-03-27 20:00:00 19.1 22 Norte 28 Norte 0 1012.7 0.9 75
2019-03-27 19:00:00 19.4 15 Norte 24 Norte 0 1012.5 0.6 74
2019-03-27 18:00:00 19.5 19 Norte 26 Norte 0 1012.2 0.1 73
2019-03-27 17:00:00 19.7 20 Norte 24 Norte 0 1011.8 -0.6 72
2019-03-27 16:00:00 20 15 Norte 22 Norte 0 1011.9 -0.9 71
2019-03-27 15:00:00 20.4 13 Norte 18 Norte 0 1012.1 -1 70
2019-03-27 14:00:00 20.7 13 Norte 24 Norte 0 1012.4 -0.6 70
2019-03-27 13:00:00 20.6 20 Norte 26 Norte 0 1012.8 0.2 70
2019-03-27 12:00:00 20.7 21 Norte 26 Norte 0 1013.1 1 71
2019-03-27 11:00:00 20.8 21 Norte 24 Norte 0 1013 1.6 70
2019-03-27 10:00:00 20.4 18 Norte 22 Norte 0 1012.6 1.9 72
2019-03-27 09:00:00 19.5 19 Norte 26 Norte 0 1012.1 2 75
2019-03-27 08:00:00 18.5 15 Norte 26 Noroeste 0 1011.4 1.8 78
2019-03-27 07:00:00 18.3 19 Norte 30 Norte 0 1010.7 1.2 78
2019-03-27 06:00:00 18.2 21 Norte 32 Norte 0 1010.1 0.3 78
2019-03-27 05:00:00 18.3 27 Norte 35 Norte 0 1009.6 -0.3 79
2019-03-27 04:00:00 18.3 29 Norte 39 Norte 0 1009.5 -0.6 79
2019-03-27 03:00:00 18.5 32 Norte 41 Norte 0 1009.8 -0.1 79
2019-03-27 02:00:00 18.7 28 Norte 39 Norte 0 1009.9 0.4 79
2019-03-27 01:00:00 18.6 26 Norte 37 Norte 0 1010.1 0.9 80
2019-03-27 00:00:00 18.7 28 Norte 39 Norte 0 1009.9 1.2 80
2019-03-26 23:00:00 18.8 32 Norte 45 Norte 0 1009.5 1.4 79
2019-03-26 22:00:00 19 36 Norte 45 Norte 0 1009.2 1.8 80
2019-03-26 21:00:00 19.2 28 Norte 35 Norte 0 1008.7 2 79
2019-03-26 20:00:00 19.2 28 Noroeste 46 Norte 0 1008.1 2.2 78
2019-03-26 19:00:00 19.6 22 Norte 28 Norte 0 1007.4 1.6 75
2019-03-26 18:00:00 19.7 21 Oeste 45 Noroeste 0 1006.7 1 73
2019-03-26 17:00:00 20.2 30 Noroeste 48 Norte 0 1005.9 0.2 72
2019-03-26 16:00:00 20.8 30 Noroeste 41 Noroeste 0 1005.8 -0.1 69
2019-03-26 15:00:00 21.3 25 Noroeste 33 Noroeste 0 1005.7 -0.4 65
2019-03-26 14:00:00 21.8 20 Noroeste 32 Noroeste 0 1005.7 -0.4 57
2019-03-26 13:00:00 21.8 20 Noroeste 32 Oeste 0 1005.9 0.1 61
2019-03-26 12:00:00 20.2 12 Este 18 Este 0 1006.1 0.7 63
2019-03-26 11:00:00 20.9 12 Sudeste 24 Sur 0 1006.1 1.4 61
2019-03-26 10:00:00 20.1 16 Sudeste 22 Sudeste 0 1005.8 1.7 65
2019-03-26 09:00:00 18.9 14 Sur 21 Sudeste 0 1005.4 1.8 67
2019-03-26 08:00:00 17 13 Sudoeste 24 Sudoeste 0 1004.7 1.2 68
2019-03-26 07:00:00 16.5 12 Oeste 30 Oeste 0 1004.1 0.6 69
2019-03-26 06:00:00 16.9 18 Oeste 33 Oeste 0 1003.6 -0.2 69
2019-03-26 05:00:00 16.8 22 Oeste 35 Oeste 0 1003.5 -0.8 68
2019-03-26 04:00:00 15.8 12 Oeste 21 Noroeste 0 1003.5 -1.1 72
2019-03-26 03:00:00 16.2 14 Oeste 30 Oeste 0 1003.8 -1 67
2019-03-26 02:00:00 15.8 19 Oeste 30 Oeste 0 1004.3 -0.5 70
2019-03-26 01:00:00 15.7 18 Oeste 24 Oeste 1.2 1004.6 0 78
2019-03-26 00:00:00 17.2 18 Norte 24 Norte 0.2 1004.8 0.5 73
2019-03-25 23:00:00 16.3 14 Oeste 24 Oeste 0 1004.8 1.5 66
2019-03-25 22:00:00 16.1 13 Oeste 21 Oeste 0 1004.6 1.5 67
2019-03-25 21:00:00 16.6 11 Oeste 18 Noroeste 0 1004.3 1.5 65
2019-03-25 20:00:00 16.8 14 Oeste 24 Noroeste 0 1003.3 0.9 69
2019-03-25 19:00:00 17.2 18 Noroeste 24 Noroeste 0 1003.1 0.4 71
2019-03-25 18:00:00 17.5 17 Noroeste 26 Norte 0 1002.8 -0.3 70
2019-03-25 17:00:00 18 17 Noroeste 30 Norte 0 1002.4 -1.5 69
2019-03-25 16:00:00 18 12 Norte 21 Norte 0 1002.7 -2 73
2019-03-25 15:00:00 17.9 15 Norte 24 Norte 0 1003.1 -2.4 70
2019-03-25 14:00:00 18.5 15 Norte 22 Norte 0 1003.9 -1.8 69
2019-03-25 13:00:00 18.3 13 Norte 17 Norte 0 1004.7 -0.8 72
2019-03-25 12:00:00 18.4 10 Norte 15 Norte 0 1005.5 -0.2 73
2019-03-25 11:00:00 17.7 5 Nordeste 13 Este 0 1005.7 0.4 75
2019-03-25 10:00:00 17 8 Este 13 Nordeste 0 1005.5 0.7 76
2019-03-25 09:00:00 15.8 5 Sur 22 Sur 0 1005.7 1 77
2019-03-25 08:00:00 15 13 Sur 21 Sur 0 1005.3 0.3 74
2019-03-25 07:00:00 14.5 12 Sur 18 Sudoeste 0.3 1004.8 -0.4 76
2019-03-25 06:00:00 14.5 10 Sudoeste 18 Sudoeste 1.4 1004.7 -1.1 75
2019-03-25 05:00:00 14.6 9 Oeste 35 Oeste 4.3 1005 -1.3 74
2019-03-25 04:00:00 16.1 19 Oeste 28 Oeste 1.7 1005.2 -1.3 74
2019-03-25 03:00:00 16.9 10 Oeste 15 Oeste 0 1005.8 -1.3 66
2019-03-25 02:00:00 17.5 9 Oeste 13 Oeste 0 1006.3 -1.5 65
2019-03-25 01:00:00 17.1 12 Oeste 17 Oeste 0 1006.5 -1.6 65
2019-03-25 00:00:00 16.9 10 Sudoeste 15 Sudoeste 0 1007.1 -0.6 62